sensor_id;sensor_type;location;lat;lon;timestamp;P1;durP1;ratioP1;P2;durP2;ratioP2
21979;SDS011;11154;48.558;9.234;2023-07-22T00:00:08;2.58;;;1.85;;
21979;SDS011;11154;48.558;9.234;2023-07-22T00:02:15;2.45;;;1.90;;
21979;SDS011;11154;48.558;9.234;2023-07-22T00:04:16;2.13;;;1.60;;
21979;SDS011;11154;48.558;9.234;2023-07-22T00:06:18;4.55;;;1.80;;
21979;SDS011;11154;48.558;9.234;2023-07-22T00:08:20;2.97;;;1.98;;
21979;SDS011;11154;48.558;9.234;2023-07-22T00:10:23;2.45;;;2.05;;
21979;SDS011;11154;48.558;9.234;2023-07-22T00:12:24;3.10;;;1.90;;
21979;SDS011;11154;48.558;9.234;2023-07-22T00:14:26;2.28;;;1.85;;
21979;SDS011;11154;48.558;9.234;2023-07-22T00:16:29;1.73;;;1.50;;
21979;SDS011;11154;48.558;9.234;2023-07-22T00:18:31;2.55;;;1.80;;
21979;SDS011;11154;48.558;9.234;2023-07-22T00:20:32;2.80;;;1.95;;
21979;SDS011;11154;48.558;9.234;2023-07-22T00:22:33;2.53;;;1.80;;
21979;SDS011;11154;48.558;9.234;2023-07-22T00:24:35;3.70;;;2.10;;
21979;SDS011;11154;48.558;9.234;2023-07-22T00:26:37;3.88;;;1.85;;
21979;SDS011;11154;48.558;9.234;2023-07-22T00:28:39;2.53;;;1.88;;
21979;SDS011;11154;48.558;9.234;2023-07-22T00:30:41;3.47;;;2.00;;
21979;SDS011;11154;48.558;9.234;2023-07-22T00:32:43;3.88;;;2.25;;
21979;SDS011;11154;48.558;9.234;2023-07-22T00:34:45;2.50;;;1.85;;
21979;SDS011;11154;48.558;9.234;2023-07-22T00:36:47;2.47;;;1.90;;
21979;SDS011;11154;48.558;9.234;2023-07-22T00:38:48;7.53;;;2.28;;
21979;SDS011;11154;48.558;9.234;2023-07-22T00:40:50;3.55;;;2.20;;
21979;SDS011;11154;48.558;9.234;2023-07-22T00:42:52;3.22;;;2.33;;
21979;SDS011;11154;48.558;9.234;2023-07-22T00:44:53;7.90;;;2.53;;
21979;SDS011;11154;48.558;9.234;2023-07-22T00:46:55;6.18;;;2.78;;
21979;SDS011;11154;48.558;9.234;2023-07-22T00:49:00;3.40;;;2.20;;
21979;SDS011;11154;48.558;9.234;2023-07-22T00:51:02;3.75;;;2.30;;
21979;SDS011;11154;48.558;9.234;2023-07-22T00:53:04;4.85;;;2.53;;
21979;SDS011;11154;48.558;9.234;2023-07-22T00:55:06;4.25;;;2.53;;
21979;SDS011;11154;48.558;9.234;2023-07-22T00:57:08;3.83;;;2.20;;
21979;SDS011;11154;48.558;9.234;2023-07-22T00:59:09;2.97;;;2.05;;
21979;SDS011;11154;48.558;9.234;2023-07-22T01:01:11;2.63;;;1.95;;
21979;SDS011;11154;48.558;9.234;2023-07-22T01:03:12;4.30;;;2.17;;
21979;SDS011;11154;48.558;9.234;2023-07-22T01:05:15;3.08;;;2.53;;
21979;SDS011;11154;48.558;9.234;2023-07-22T01:07:17;3.67;;;2.33;;
21979;SDS011;11154;48.558;9.234;2023-07-22T01:09:19;5.00;;;2.20;;
21979;SDS011;11154;48.558;9.234;2023-07-22T01:11:21;3.10;;;2.08;;
21979;SDS011;11154;48.558;9.234;2023-07-22T01:13:22;4.30;;;2.40;;
21979;SDS011;11154;48.558;9.234;2023-07-22T01:15:24;2.30;;;1.77;;
21979;SDS011;11154;48.558;9.234;2023-07-22T01:17:26;4.18;;;1.92;;
21979;SDS011;11154;48.558;9.234;2023-07-22T01:19:28;4.35;;;2.20;;
21979;SDS011;11154;48.558;9.234;2023-07-22T01:21:32;2.53;;;1.98;;
21979;SDS011;11154;48.558;9.234;2023-07-22T01:23:35;2.67;;;2.00;;
21979;SDS011;11154;48.558;9.234;2023-07-22T01:25:37;3.65;;;2.15;;
21979;SDS011;11154;48.558;9.234;2023-07-22T01:27:39;3.38;;;2.30;;
21979;SDS011;11154;48.558;9.234;2023-07-22T01:29:40;3.53;;;2.00;;
21979;SDS011;11154;48.558;9.234;2023-07-22T01:31:44;3.20;;;2.17;;
21979;SDS011;11154;48.558;9.234;2023-07-22T01:33:48;3.28;;;2.20;;
21979;SDS011;11154;48.558;9.234;2023-07-22T01:35:52;7.35;;;2.33;;
21979;SDS011;11154;48.558;9.234;2023-07-22T01:37:54;3.58;;;2.08;;
21979;SDS011;11154;48.558;9.234;2023-07-22T01:39:56;3.90;;;2.03;;
21979;SDS011;11154;48.558;9.234;2023-07-22T01:41:58;2.78;;;2.40;;
21979;SDS011;11154;48.558;9.234;2023-07-22T01:44:00;3.28;;;2.35;;
21979;SDS011;11154;48.558;9.234;2023-07-22T01:46:01;3.22;;;2.00;;
21979;SDS011;11154;48.558;9.234;2023-07-22T01:48:03;2.50;;;2.17;;
21979;SDS011;11154;48.558;9.234;2023-07-22T01:50:05;3.20;;;2.25;;
21979;SDS011;11154;48.558;9.234;2023-07-22T01:52:07;3.05;;;2.13;;
21979;SDS011;11154;48.558;9.234;2023-07-22T01:54:09;3.65;;;2.28;;
21979;SDS011;11154;48.558;9.234;2023-07-22T01:56:12;4.60;;;2.55;;
21979;SDS011;11154;48.558;9.234;2023-07-22T01:58:14;3.15;;;1.90;;
21979;SDS011;11154;48.558;9.234;2023-07-22T02:00:16;2.88;;;2.20;;
21979;SDS011;11154;48.558;9.234;2023-07-22T02:02:18;2.88;;;2.13;;
21979;SDS011;11154;48.558;9.234;2023-07-22T02:04:21;2.75;;;2.40;;
21979;SDS011;11154;48.558;9.234;2023-07-22T02:06:22;3.08;;;2.08;;
21979;SDS011;11154;48.558;9.234;2023-07-22T02:08:24;4.50;;;2.35;;
21979;SDS011;11154;48.558;9.234;2023-07-22T02:10:26;3.08;;;2.22;;
21979;SDS011;11154;48.558;9.234;2023-07-22T02:12:29;4.43;;;2.70;;
21979;SDS011;11154;48.558;9.234;2023-07-22T02:14:30;2.40;;;1.98;;
21979;SDS011;11154;48.558;9.234;2023-07-22T02:16:32;2.60;;;2.03;;
21979;SDS011;11154;48.558;9.234;2023-07-22T02:18:34;2.25;;;2.05;;
21979;SDS011;11154;48.558;9.234;2023-07-22T02:20:36;2.08;;;1.73;;
21979;SDS011;11154;48.558;9.234;2023-07-22T02:22:38;2.63;;;1.88;;
21979;SDS011;11154;48.558;9.234;2023-07-22T02:24:39;2.65;;;2.00;;
21979;SDS011;11154;48.558;9.234;2023-07-22T02:26:41;3.50;;;2.13;;
21979;SDS011;11154;48.558;9.234;2023-07-22T02:28:44;2.20;;;1.52;;
21979;SDS011;11154;48.558;9.234;2023-07-22T02:30:46;2.70;;;1.70;;
21979;SDS011;11154;48.558;9.234;2023-07-22T02:32:48;4.65;;;1.83;;
21979;SDS011;11154;48.558;9.234;2023-07-22T02:34:50;2.25;;;1.67;;
21979;SDS011;11154;48.558;9.234;2023-07-22T02:36:50;4.18;;;2.00;;
21979;SDS011;11154;48.558;9.234;2023-07-22T02:38:52;3.17;;;1.63;;
21979;SDS011;11154;48.558;9.234;2023-07-22T02:40:52;2.95;;;1.70;;
21979;SDS011;11154;48.558;9.234;2023-07-22T02:42:54;3.28;;;1.80;;
21979;SDS011;11154;48.558;9.234;2023-07-22T02:44:57;3.08;;;1.90;;
21979;SDS011;11154;48.558;9.234;2023-07-22T02:46:59;2.55;;;1.85;;
21979;SDS011;11154;48.558;9.234;2023-07-22T02:49:00;4.85;;;2.05;;
21979;SDS011;11154;48.558;9.234;2023-07-22T02:51:03;4.82;;;1.75;;
21979;SDS011;11154;48.558;9.234;2023-07-22T02:53:05;5.00;;;2.13;;
21979;SDS011;11154;48.558;9.234;2023-07-22T02:55:08;3.13;;;1.80;;
21979;SDS011;11154;48.558;9.234;2023-07-22T02:57:10;2.72;;;2.17;;
21979;SDS011;11154;48.558;9.234;2023-07-22T02:59:12;4.32;;;2.25;;
21979;SDS011;11154;48.558;9.234;2023-07-22T03:01:15;2.60;;;2.10;;
21979;SDS011;11154;48.558;9.234;2023-07-22T03:03:17;2.58;;;2.30;;
21979;SDS011;11154;48.558;9.234;2023-07-22T03:05:19;5.82;;;2.33;;
21979;SDS011;11154;48.558;9.234;2023-07-22T03:07:21;3.60;;;2.00;;
21979;SDS011;11154;48.558;9.234;2023-07-22T03:09:22;4.07;;;2.13;;
21979;SDS011;11154;48.558;9.234;2023-07-22T03:11:23;2.78;;;2.00;;
21979;SDS011;11154;48.558;9.234;2023-07-22T03:13:25;3.25;;;2.10;;
21979;SDS011;11154;48.558;9.234;2023-07-22T03:15:29;3.45;;;2.10;;
21979;SDS011;11154;48.558;9.234;2023-07-22T03:17:32;4.03;;;2.22;;
21979;SDS011;11154;48.558;9.234;2023-07-22T03:19:34;4.70;;;2.55;;
21979;SDS011;11154;48.558;9.234;2023-07-22T03:21:35;4.60;;;2.10;;
21979;SDS011;11154;48.558;9.234;2023-07-22T03:23:37;2.38;;;2.10;;
21979;SDS011;11154;48.558;9.234;2023-07-22T03:25:40;5.95;;;2.20;;
21979;SDS011;11154;48.558;9.234;2023-07-22T03:27:42;4.90;;;3.20;;
21979;SDS011;11154;48.558;9.234;2023-07-22T03:29:44;2.80;;;2.15;;
21979;SDS011;11154;48.558;9.234;2023-07-22T03:31:45;5.65;;;1.92;;
21979;SDS011;11154;48.558;9.234;2023-07-22T03:33:48;2.40;;;2.13;;
21979;SDS011;11154;48.558;9.234;2023-07-22T03:35:50;4.70;;;2.50;;
21979;SDS011;11154;48.558;9.234;2023-07-22T03:37:51;11.48;;;7.47;;
21979;SDS011;11154;48.558;9.234;2023-07-22T03:39:53;13.55;;;8.73;;
21979;SDS011;11154;48.558;9.234;2023-07-22T03:41:55;6.18;;;4.72;;
21979;SDS011;11154;48.558;9.234;2023-07-22T03:43:56;3.80;;;2.63;;
21979;SDS011;11154;48.558;9.234;2023-07-22T03:45:58;3.03;;;2.47;;
21979;SDS011;11154;48.558;9.234;2023-07-22T03:47:59;3.88;;;2.42;;
21979;SDS011;11154;48.558;9.234;2023-07-22T03:50:02;5.68;;;2.50;;
21979;SDS011;11154;48.558;9.234;2023-07-22T03:52:05;4.55;;;2.20;;
21979;SDS011;11154;48.558;9.234;2023-07-22T03:54:08;3.78;;;2.38;;
21979;SDS011;11154;48.558;9.234;2023-07-22T03:56:09;3.38;;;2.10;;
21979;SDS011;11154;48.558;9.234;2023-07-22T03:58:11;2.80;;;1.85;;
21979;SDS011;11154;48.558;9.234;2023-07-22T04:00:13;2.88;;;2.05;;
21979;SDS011;11154;48.558;9.234;2023-07-22T04:02:14;4.53;;;2.30;;
21979;SDS011;11154;48.558;9.234;2023-07-22T04:04:15;4.20;;;2.35;;
21979;SDS011;11154;48.558;9.234;2023-07-22T04:06:18;3.00;;;2.05;;
21979;SDS011;11154;48.558;9.234;2023-07-22T04:08:20;3.20;;;2.17;;
21979;SDS011;11154;48.558;9.234;2023-07-22T04:10:22;6.80;;;3.28;;
21979;SDS011;11154;48.558;9.234;2023-07-22T04:12:23;2.33;;;1.98;;
21979;SDS011;11154;48.558;9.234;2023-07-22T04:14:24;3.90;;;2.22;;
21979;SDS011;11154;48.558;9.234;2023-07-22T04:16:25;3.17;;;2.30;;
21979;SDS011;11154;48.558;9.234;2023-07-22T04:18:27;3.22;;;2.15;;
21979;SDS011;11154;48.558;9.234;2023-07-22T04:20:34;3.78;;;2.70;;
21979;SDS011;11154;48.558;9.234;2023-07-22T04:22:37;4.05;;;2.47;;
21979;SDS011;11154;48.558;9.234;2023-07-22T04:24:38;4.68;;;2.20;;
21979;SDS011;11154;48.558;9.234;2023-07-22T04:26:41;4.20;;;2.30;;
21979;SDS011;11154;48.558;9.234;2023-07-22T04:28:43;2.65;;;2.00;;
21979;SDS011;11154;48.558;9.234;2023-07-22T04:30:54;3.40;;;2.60;;
21979;SDS011;11154;48.558;9.234;2023-07-22T04:32:57;4.15;;;2.30;;
21979;SDS011;11154;48.558;9.234;2023-07-22T04:34:59;3.35;;;2.50;;
21979;SDS011;11154;48.558;9.234;2023-07-22T04:37:01;3.28;;;2.10;;
21979;SDS011;11154;48.558;9.234;2023-07-22T04:39:04;4.15;;;2.55;;
21979;SDS011;11154;48.558;9.234;2023-07-22T04:41:06;4.55;;;2.50;;
21979;SDS011;11154;48.558;9.234;2023-07-22T04:43:08;2.60;;;2.30;;
21979;SDS011;11154;48.558;9.234;2023-07-22T04:45:10;3.08;;;2.20;;
21979;SDS011;11154;48.558;9.234;2023-07-22T04:47:12;5.10;;;2.25;;
21979;SDS011;11154;48.558;9.234;2023-07-22T04:49:13;3.45;;;2.20;;
21979;SDS011;11154;48.558;9.234;2023-07-22T04:51:17;2.67;;;2.10;;
21979;SDS011;11154;48.558;9.234;2023-07-22T04:53:19;3.13;;;2.13;;
21979;SDS011;11154;48.558;9.234;2023-07-22T04:55:22;3.65;;;2.20;;
21979;SDS011;11154;48.558;9.234;2023-07-22T04:57:23;3.15;;;2.05;;
21979;SDS011;11154;48.558;9.234;2023-07-22T04:59:25;3.28;;;2.05;;
21979;SDS011;11154;48.558;9.234;2023-07-22T05:01:27;4.00;;;2.40;;
21979;SDS011;11154;48.558;9.234;2023-07-22T05:03:29;2.90;;;2.13;;
21979;SDS011;11154;48.558;9.234;2023-07-22T05:05:31;4.45;;;2.25;;
21979;SDS011;11154;48.558;9.234;2023-07-22T05:07:32;3.85;;;2.22;;
21979;SDS011;11154;48.558;9.234;2023-07-22T05:09:35;3.08;;;2.00;;
21979;SDS011;11154;48.558;9.234;2023-07-22T05:11:39;4.00;;;2.25;;
21979;SDS011;11154;48.558;9.234;2023-07-22T05:13:40;4.93;;;2.05;;
21979;SDS011;11154;48.558;9.234;2023-07-22T05:15:42;2.65;;;1.95;;
21979;SDS011;11154;48.558;9.234;2023-07-22T05:17:44;3.22;;;1.90;;
21979;SDS011;11154;48.558;9.234;2023-07-22T05:19:46;2.75;;;2.22;;
21979;SDS011;11154;48.558;9.234;2023-07-22T05:21:49;3.17;;;2.22;;
21979;SDS011;11154;48.558;9.234;2023-07-22T05:23:50;2.50;;;2.05;;
21979;SDS011;11154;48.558;9.234;2023-07-22T05:25:52;2.72;;;2.15;;
21979;SDS011;11154;48.558;9.234;2023-07-22T05:27:55;2.15;;;1.90;;
21979;SDS011;11154;48.558;9.234;2023-07-22T05:29:57;5.40;;;2.17;;
21979;SDS011;11154;48.558;9.234;2023-07-22T05:31:57;4.70;;;2.20;;
21979;SDS011;11154;48.558;9.234;2023-07-22T05:33:59;2.20;;;1.90;;
21979;SDS011;11154;48.558;9.234;2023-07-22T05:35:59;4.03;;;2.20;;
21979;SDS011;11154;48.558;9.234;2023-07-22T05:38:01;4.70;;;2.40;;
21979;SDS011;11154;48.558;9.234;2023-07-22T05:40:05;2.75;;;2.15;;
21979;SDS011;11154;48.558;9.234;2023-07-22T05:42:08;2.00;;;1.77;;
21979;SDS011;11154;48.558;9.234;2023-07-22T05:44:11;3.42;;;1.95;;
21979;SDS011;11154;48.558;9.234;2023-07-22T05:46:12;3.10;;;1.92;;
21979;SDS011;11154;48.558;9.234;2023-07-22T05:48:14;5.25;;;1.85;;
21979;SDS011;11154;48.558;9.234;2023-07-22T05:50:15;6.10;;;2.03;;
21979;SDS011;11154;48.558;9.234;2023-07-22T05:52:16;2.65;;;2.20;;
21979;SDS011;11154;48.558;9.234;2023-07-22T05:54:18;4.78;;;2.35;;
21979;SDS011;11154;48.558;9.234;2023-07-22T05:56:19;2.80;;;2.33;;
21979;SDS011;11154;48.558;9.234;2023-07-22T05:58:21;4.72;;;2.60;;
21979;SDS011;11154;48.558;9.234;2023-07-22T06:00:24;6.18;;;2.30;;
21979;SDS011;11154;48.558;9.234;2023-07-22T06:02:26;3.63;;;2.10;;
21979;SDS011;11154;48.558;9.234;2023-07-22T06:04:27;7.55;;;2.60;;
21979;SDS011;11154;48.558;9.234;2023-07-22T06:06:28;3.70;;;2.50;;
21979;SDS011;11154;48.558;9.234;2023-07-22T06:08:29;5.10;;;2.60;;
21979;SDS011;11154;48.558;9.234;2023-07-22T06:10:31;4.25;;;2.25;;
21979;SDS011;11154;48.558;9.234;2023-07-22T06:12:33;4.22;;;2.55;;
21979;SDS011;11154;48.558;9.234;2023-07-22T06:14:34;4.55;;;2.35;;
21979;SDS011;11154;48.558;9.234;2023-07-22T06:16:37;2.97;;;2.55;;
21979;SDS011;11154;48.558;9.234;2023-07-22T06:18:38;3.78;;;2.20;;
21979;SDS011;11154;48.558;9.234;2023-07-22T06:20:40;3.35;;;2.20;;
21979;SDS011;11154;48.558;9.234;2023-07-22T06:22:41;3.20;;;2.38;;
21979;SDS011;11154;48.558;9.234;2023-07-22T06:24:43;8.68;;;2.85;;
21979;SDS011;11154;48.558;9.234;2023-07-22T06:26:44;2.85;;;2.15;;
21979;SDS011;11154;48.558;9.234;2023-07-22T06:28:46;3.83;;;2.63;;
21979;SDS011;11154;48.558;9.234;2023-07-22T06:30:48;3.10;;;2.20;;
21979;SDS011;11154;48.558;9.234;2023-07-22T06:32:51;5.65;;;2.60;;
21979;SDS011;11154;48.558;9.234;2023-07-22T06:34:52;3.85;;;2.35;;
21979;SDS011;11154;48.558;9.234;2023-07-22T06:36:54;3.25;;;2.40;;
21979;SDS011;11154;48.558;9.234;2023-07-22T06:38:55;5.30;;;2.40;;
21979;SDS011;11154;48.558;9.234;2023-07-22T06:40:57;4.00;;;2.20;;
21979;SDS011;11154;48.558;9.234;2023-07-22T06:42:58;6.93;;;2.83;;
21979;SDS011;11154;48.558;9.234;2023-07-22T06:45:00;4.70;;;2.22;;
21979;SDS011;11154;48.558;9.234;2023-07-22T06:47:01;4.22;;;2.28;;
21979;SDS011;11154;48.558;9.234;2023-07-22T06:49:03;2.25;;;1.88;;
21979;SDS011;11154;48.558;9.234;2023-07-22T06:51:06;3.17;;;2.08;;
21979;SDS011;11154;48.558;9.234;2023-07-22T06:53:08;2.00;;;1.58;;
21979;SDS011;11154;48.558;9.234;2023-07-22T06:55:11;3.92;;;1.90;;
21979;SDS011;11154;48.558;9.234;2023-07-22T06:57:12;4.43;;;1.90;;
21979;SDS011;11154;48.558;9.234;2023-07-22T06:59:14;4.30;;;2.08;;
21979;SDS011;11154;48.558;9.234;2023-07-22T07:01:15;2.55;;;1.77;;
21979;SDS011;11154;48.558;9.234;2023-07-22T07:03:17;3.03;;;1.70;;
21979;SDS011;11154;48.558;9.234;2023-07-22T07:05:20;2.78;;;1.73;;
21979;SDS011;11154;48.558;9.234;2023-07-22T07:07:21;3.22;;;1.92;;
21979;SDS011;11154;48.558;9.234;2023-07-22T07:09:23;3.38;;;1.88;;
21979;SDS011;11154;48.558;9.234;2023-07-22T07:11:25;4.57;;;2.00;;
21979;SDS011;11154;48.558;9.234;2023-07-22T07:13:26;2.97;;;2.03;;
21979;SDS011;11154;48.558;9.234;2023-07-22T07:15:28;1.90;;;1.70;;
21979;SDS011;11154;48.558;9.234;2023-07-22T07:17:30;2.22;;;1.90;;
21979;SDS011;11154;48.558;9.234;2023-07-22T07:19:31;5.55;;;1.85;;
21979;SDS011;11154;48.558;9.234;2023-07-22T07:21:34;3.28;;;1.70;;
21979;SDS011;11154;48.558;9.234;2023-07-22T07:23:36;2.67;;;1.88;;
21979;SDS011;11154;48.558;9.234;2023-07-22T07:25:37;2.83;;;1.80;;
21979;SDS011;11154;48.558;9.234;2023-07-22T07:27:39;3.03;;;1.85;;
21979;SDS011;11154;48.558;9.234;2023-07-22T07:29:40;3.95;;;1.50;;
21979;SDS011;11154;48.558;9.234;2023-07-22T07:31:41;2.88;;;1.83;;
21979;SDS011;11154;48.558;9.234;2023-07-22T07:33:43;2.55;;;1.77;;
21979;SDS011;11154;48.558;9.234;2023-07-22T07:35:45;2.70;;;1.60;;
21979;SDS011;11154;48.558;9.234;2023-07-22T07:37:48;2.65;;;1.90;;
21979;SDS011;11154;48.558;9.234;2023-07-22T07:39:50;2.28;;;1.70;;
21979;SDS011;11154;48.558;9.234;2023-07-22T07:41:52;2.03;;;1.65;;
21979;SDS011;11154;48.558;9.234;2023-07-22T07:43:54;3.13;;;1.83;;
21979;SDS011;11154;48.558;9.234;2023-07-22T07:48:18;2.88;;;1.63;;
21979;SDS011;11154;48.558;9.234;2023-07-22T07:50:20;2.55;;;1.52;;
21979;SDS011;11154;48.558;9.234;2023-07-22T07:52:22;2.38;;;1.80;;
21979;SDS011;11154;48.558;9.234;2023-07-22T07:54:25;1.95;;;1.70;;
21979;SDS011;11154;48.558;9.234;2023-07-22T07:56:27;3.30;;;1.67;;
21979;SDS011;11154;48.558;9.234;2023-07-22T07:58:29;1.70;;;1.60;;
21979;SDS011;11154;48.558;9.234;2023-07-22T08:00:31;2.83;;;1.77;;
21979;SDS011;11154;48.558;9.234;2023-07-22T08:02:33;2.90;;;1.83;;
21979;SDS011;11154;48.558;9.234;2023-07-22T08:04:35;3.45;;;1.90;;
21979;SDS011;11154;48.558;9.234;2023-07-22T08:06:36;2.22;;;1.83;;
21979;SDS011;11154;48.558;9.234;2023-07-22T08:08:38;1.88;;;1.40;;
21979;SDS011;11154;48.558;9.234;2023-07-22T08:10:42;4.72;;;1.92;;
21979;SDS011;11154;48.558;9.234;2023-07-22T08:12:44;4.30;;;1.60;;
21979;SDS011;11154;48.558;9.234;2023-07-22T08:14:46;1.77;;;1.30;;
21979;SDS011;11154;48.558;9.234;2023-07-22T08:16:48;3.35;;;1.55;;
21979;SDS011;11154;48.558;9.234;2023-07-22T08:18:49;2.17;;;1.45;;
21979;SDS011;11154;48.558;9.234;2023-07-22T08:20:51;2.15;;;1.65;;
21979;SDS011;11154;48.558;9.234;2023-07-22T08:22:53;1.55;;;1.42;;
21979;SDS011;11154;48.558;9.234;2023-07-22T08:24:54;1.90;;;1.50;;
21979;SDS011;11154;48.558;9.234;2023-07-22T08:26:57;1.77;;;1.48;;
21979;SDS011;11154;48.558;9.234;2023-07-22T08:28:59;4.95;;;1.83;;
21979;SDS011;11154;48.558;9.234;2023-07-22T08:31:01;2.17;;;1.55;;
21979;SDS011;11154;48.558;9.234;2023-07-22T08:33:03;2.28;;;1.55;;
21979;SDS011;11154;48.558;9.234;2023-07-22T08:35:05;2.72;;;1.42;;
21979;SDS011;11154;48.558;9.234;2023-07-22T08:37:07;4.55;;;1.70;;
21979;SDS011;11154;48.558;9.234;2023-07-22T08:39:09;2.97;;;1.40;;
21979;SDS011;11154;48.558;9.234;2023-07-22T08:41:13;2.47;;;1.50;;
21979;SDS011;11154;48.558;9.234;2023-07-22T08:43:19;2.17;;;1.50;;
21979;SDS011;11154;48.558;9.234;2023-07-22T08:45:22;2.05;;;1.27;;
21979;SDS011;11154;48.558;9.234;2023-07-22T08:47:28;2.78;;;1.73;;
21979;SDS011;11154;48.558;9.234;2023-07-22T08:49:30;2.70;;;1.48;;
21979;SDS011;11154;48.558;9.234;2023-07-22T08:51:34;2.13;;;1.58;;
21979;SDS011;11154;48.558;9.234;2023-07-22T08:53:37;4.03;;;1.48;;
21979;SDS011;11154;48.558;9.234;2023-07-22T08:55:39;2.08;;;1.50;;
21979;SDS011;11154;48.558;9.234;2023-07-22T08:57:40;2.30;;;1.48;;
21979;SDS011;11154;48.558;9.234;2023-07-22T08:59:44;1.73;;;1.27;;
21979;SDS011;11154;48.558;9.234;2023-07-22T09:01:47;1.55;;;1.30;;
21979;SDS011;11154;48.558;9.234;2023-07-22T09:03:49;2.70;;;1.48;;
21979;SDS011;11154;48.558;9.234;2023-07-22T09:05:53;1.70;;;1.60;;
21979;SDS011;11154;48.558;9.234;2023-07-22T09:07:55;2.95;;;1.55;;
21979;SDS011;11154;48.558;9.234;2023-07-22T09:09:57;2.70;;;1.30;;
21979;SDS011;11154;48.558;9.234;2023-07-22T09:12:00;1.63;;;1.17;;
21979;SDS011;11154;48.558;9.234;2023-07-22T09:14:02;2.63;;;1.35;;
21979;SDS011;11154;48.558;9.234;2023-07-22T09:16:05;2.88;;;1.27;;
21979;SDS011;11154;48.558;9.234;2023-07-22T09:18:07;4.53;;;1.40;;
21979;SDS011;11154;48.558;9.234;2023-07-22T09:20:09;2.00;;;1.20;;
21979;SDS011;11154;48.558;9.234;2023-07-22T09:22:14;1.63;;;1.13;;
21979;SDS011;11154;48.558;9.234;2023-07-22T09:24:19;1.55;;;1.20;;
21979;SDS011;11154;48.558;9.234;2023-07-22T09:26:22;1.52;;;1.05;;
21979;SDS011;11154;48.558;9.234;2023-07-22T09:28:24;1.60;;;1.27;;
21979;SDS011;11154;48.558;9.234;2023-07-22T09:30:26;2.05;;;1.23;;
21979;SDS011;11154;48.558;9.234;2023-07-22T09:32:35;2.78;;;1.15;;
21979;SDS011;11154;48.558;9.234;2023-07-22T09:34:36;1.75;;;1.27;;
21979;SDS011;11154;48.558;9.234;2023-07-22T09:36:48;2.28;;;1.35;;
21979;SDS011;11154;48.558;9.234;2023-07-22T09:38:58;1.55;;;1.10;;
21979;SDS011;11154;48.558;9.234;2023-07-22T09:41:01;1.38;;;1.00;;
21979;SDS011;11154;48.558;9.234;2023-07-22T09:43:03;4.40;;;1.30;;
21979;SDS011;11154;48.558;9.234;2023-07-22T09:45:05;1.27;;;0.90;;
21979;SDS011;11154;48.558;9.234;2023-07-22T09:47:07;1.75;;;0.90;;
21979;SDS011;11154;48.558;9.234;2023-07-22T09:49:11;2.05;;;1.13;;
21979;SDS011;11154;48.558;9.234;2023-07-22T09:51:14;2.30;;;1.20;;
21979;SDS011;11154;48.558;9.234;2023-07-22T09:53:16;1.85;;;0.98;;
21979;SDS011;11154;48.558;9.234;2023-07-22T09:55:18;2.78;;;1.17;;
21979;SDS011;11154;48.558;9.234;2023-07-22T09:57:21;1.20;;;1.05;;
21979;SDS011;11154;48.558;9.234;2023-07-22T09:59:23;1.85;;;1.00;;
21979;SDS011;11154;48.558;9.234;2023-07-22T10:01:27;1.58;;;1.30;;
21979;SDS011;11154;48.558;9.234;2023-07-22T10:03:29;1.23;;;1.00;;
21979;SDS011;11154;48.558;9.234;2023-07-22T10:05:35;1.42;;;1.23;;
21979;SDS011;11154;48.558;9.234;2023-07-22T10:07:40;2.22;;;1.17;;
21979;SDS011;11154;48.558;9.234;2023-07-22T10:09:46;1.30;;;1.20;;
21979;SDS011;11154;48.558;9.234;2023-07-22T10:11:48;1.02;;;0.80;;
21979;SDS011;11154;48.558;9.234;2023-07-22T10:13:50;3.42;;;1.20;;
21979;SDS011;11154;48.558;9.234;2023-07-22T10:15:53;1.65;;;1.20;;
21979;SDS011;11154;48.558;9.234;2023-07-22T10:17:55;1.50;;;1.20;;
21979;SDS011;11154;48.558;9.234;2023-07-22T10:19:57;1.83;;;1.10;;
21979;SDS011;11154;48.558;9.234;2023-07-22T10:22:01;1.02;;;0.93;;
21979;SDS011;11154;48.558;9.234;2023-07-22T10:24:03;2.10;;;1.25;;
21979;SDS011;11154;48.558;9.234;2023-07-22T10:26:06;1.17;;;1.02;;
21979;SDS011;11154;48.558;9.234;2023-07-22T10:28:08;2.53;;;1.50;;
21979;SDS011;11154;48.558;9.234;2023-07-22T10:30:11;1.67;;;1.15;;
21979;SDS011;11154;48.558;9.234;2023-07-22T10:32:14;1.23;;;1.02;;
21979;SDS011;11154;48.558;9.234;2023-07-22T10:34:17;2.30;;;1.17;;
21979;SDS011;11154;48.558;9.234;2023-07-22T10:36:22;2.15;;;1.30;;
21979;SDS011;11154;48.558;9.234;2023-07-22T10:38:32;1.38;;;1.05;;
21979;SDS011;11154;48.558;9.234;2023-07-22T10:40:44;1.15;;;1.00;;
21979;SDS011;11154;48.558;9.234;2023-07-22T10:42:52;3.10;;;1.30;;
21979;SDS011;11154;48.558;9.234;2023-07-22T10:44:55;1.42;;;0.90;;
21979;SDS011;11154;48.558;9.234;2023-07-22T10:47:01;1.48;;;0.98;;
21979;SDS011;11154;48.558;9.234;2023-07-22T10:49:07;5.47;;;1.45;;
21979;SDS011;11154;48.558;9.234;2023-07-22T10:51:12;1.42;;;1.10;;
21979;SDS011;11154;48.558;9.234;2023-07-22T10:53:20;2.88;;;1.25;;
21979;SDS011;11154;48.558;9.234;2023-07-22T10:55:23;5.18;;;1.50;;
21979;SDS011;11154;48.558;9.234;2023-07-22T10:57:27;2.55;;;1.10;;
21979;SDS011;11154;48.558;9.234;2023-07-22T10:59:32;1.20;;;1.00;;
21979;SDS011;11154;48.558;9.234;2023-07-22T11:01:34;2.10;;;1.10;;
21979;SDS011;11154;48.558;9.234;2023-07-22T11:06:15;1.15;;;1.02;;
21979;SDS011;11154;48.558;9.234;2023-07-22T11:08:17;2.03;;;1.40;;
21979;SDS011;11154;48.558;9.234;2023-07-22T11:10:19;5.47;;;1.10;;
21979;SDS011;11154;48.558;9.234;2023-07-22T11:12:22;2.67;;;1.15;;
21979;SDS011;11154;48.558;9.234;2023-07-22T11:14:26;2.42;;;1.20;;
21979;SDS011;11154;48.558;9.234;2023-07-22T11:16:28;4.38;;;1.27;;
21979;SDS011;11154;48.558;9.234;2023-07-22T11:18:36;7.13;;;1.40;;
21979;SDS011;11154;48.558;9.234;2023-07-22T11:20:38;3.15;;;1.52;;
21979;SDS011;11154;48.558;9.234;2023-07-22T11:22:40;1.67;;;1.25;;
21979;SDS011;11154;48.558;9.234;2023-07-22T11:24:43;4.05;;;1.73;;
21979;SDS011;11154;48.558;9.234;2023-07-22T11:26:45;2.50;;;1.50;;
21979;SDS011;11154;48.558;9.234;2023-07-22T11:28:48;2.13;;;1.40;;
21979;SDS011;11154;48.558;9.234;2023-07-22T11:30:53;4.88;;;1.30;;
21979;SDS011;11154;48.558;9.234;2023-07-22T11:32:57;4.43;;;1.70;;
21979;SDS011;11154;48.558;9.234;2023-07-22T11:34:59;2.58;;;1.60;;
21979;SDS011;11154;48.558;9.234;2023-07-22T11:37:00;1.40;;;1.20;;
21979;SDS011;11154;48.558;9.234;2023-07-22T11:39:03;2.33;;;1.50;;
21979;SDS011;11154;48.558;9.234;2023-07-22T11:41:06;2.38;;;1.30;;
21979;SDS011;11154;48.558;9.234;2023-07-22T11:43:09;2.63;;;1.60;;
21979;SDS011;11154;48.558;9.234;2023-07-22T11:45:13;2.70;;;1.77;;
21979;SDS011;11154;48.558;9.234;2023-07-22T11:47:15;7.05;;;3.05;;
21979;SDS011;11154;48.558;9.234;2023-07-22T11:49:23;2.75;;;1.58;;
21979;SDS011;11154;48.558;9.234;2023-07-22T11:51:25;1.63;;;1.40;;
21979;SDS011;11154;48.558;9.234;2023-07-22T11:53:27;2.28;;;1.45;;
21979;SDS011;11154;48.558;9.234;2023-07-22T11:55:29;2.78;;;1.77;;
21979;SDS011;11154;48.558;9.234;2023-07-22T11:57:31;3.45;;;1.70;;
21979;SDS011;11154;48.558;9.234;2023-07-22T11:59:33;2.63;;;1.55;;
21979;SDS011;11154;48.558;9.234;2023-07-22T12:01:37;4.90;;;1.90;;
21979;SDS011;11154;48.558;9.234;2023-07-22T12:03:39;3.38;;;1.38;;
21979;SDS011;11154;48.558;9.234;2023-07-22T12:05:40;2.33;;;1.80;;
21979;SDS011;11154;48.558;9.234;2023-07-22T12:07:42;5.22;;;1.50;;
21979;SDS011;11154;48.558;9.234;2023-07-22T12:09:47;2.60;;;1.73;;
21979;SDS011;11154;48.558;9.234;2023-07-22T12:11:49;4.72;;;1.80;;
21979;SDS011;11154;48.558;9.234;2023-07-22T12:14:04;3.70;;;1.58;;
21979;SDS011;11154;48.558;9.234;2023-07-22T12:16:07;3.45;;;1.52;;
21979;SDS011;11154;48.558;9.234;2023-07-22T12:18:10;2.50;;;1.40;;
21979;SDS011;11154;48.558;9.234;2023-07-22T12:20:12;3.13;;;1.60;;
21979;SDS011;11154;48.558;9.234;2023-07-22T12:22:14;2.15;;;1.50;;